createdAt,value
2022-08-17T00:14:54.177Z,76.5
2022-08-17T00:34:54.210Z,77.0
2022-08-17T00:54:54.150Z,75.2
2022-08-17T01:14:54.089Z,73.3
2022-08-17T01:34:54.118Z,77.7
2022-08-17T01:54:54.052Z,73.8
2022-08-17T02:14:53.983Z,77.9
2022-08-17T02:34:54.023Z,80.7
2022-08-17T02:54:53.955Z,77.7
2022-08-17T03:14:53.988Z,78.1
2022-08-17T03:34:53.925Z,80.3
2022-08-17T03:54:53.953Z,80.0
2022-08-17T04:14:53.885Z,79.5
2022-08-17T04:34:53.822Z,80.5
2022-08-17T04:54:53.849Z,79.3
2022-08-17T05:14:53.783Z,77.3
2022-08-17T05:54:53.760Z,79.0
2022-08-17T06:14:53.764Z,74.9
2022-08-17T06:34:53.704Z,73.9
2022-08-17T06:54:53.629Z,70.3
2022-08-17T07:14:53.657Z,63.3
2022-08-17T07:34:53.589Z,59.0
2022-08-17T07:54:53.607Z,58.5
2022-08-17T08:14:53.559Z,52.5
2022-08-17T08:34:53.485Z,53.7
2022-08-17T08:54:53.512Z,49.7
2022-08-17T09:14:53.436Z,46.8
2022-08-17T09:34:53.468Z,50.4
2022-08-17T09:54:53.402Z,45.7
2022-08-17T10:14:53.335Z,45.7
2022-08-17T10:34:53.364Z,46.4
2022-08-17T10:54:53.297Z,45.6
2022-08-17T11:14:53.231Z,48.8
2022-08-17T11:34:53.283Z,45.0
2022-08-17T11:54:53.197Z,48.3
2022-08-17T12:14:53.131Z,44.7
2022-08-17T12:34:53.172Z,45.5
2022-08-17T12:54:53.116Z,48.1
2022-08-17T13:14:53.045Z,50.1
2022-08-17T13:34:53.079Z,46.2
2022-08-17T13:54:53.010Z,50.6
2022-08-17T14:14:52.954Z,47.7
2022-08-17T14:34:52.987Z,43.3
2022-08-17T14:54:52.931Z,54.8
2022-08-17T15:14:52.870Z,48.9
2022-08-17T15:34:52.822Z,51.1
2022-08-17T15:54:52.865Z,50.8
2022-08-17T16:14:52.813Z,56.9
2022-08-17T16:34:52.755Z,64.4
2022-08-17T16:54:52.704Z,55.6
2022-08-17T17:14:52.744Z,59.8
2022-08-17T17:34:52.691Z,69.2
2022-08-17T17:54:52.635Z,71.1
2022-08-17T18:14:52.575Z,73.7
2022-08-17T18:34:52.619Z,70.5
2022-08-17T18:54:52.562Z,70.4
2022-08-17T19:14:52.503Z,69.0
2022-08-17T19:34:52.457Z,75.3
2022-08-17T19:54:52.488Z,68.2
2022-08-17T20:14:52.426Z,69.1
2022-08-17T20:34:52.367Z,76.4
2022-08-17T20:54:52.405Z,71.9
2022-08-17T21:14:52.344Z,74.9
2022-08-17T21:34:52.296Z,70.0
2022-08-17T21:54:52.324Z,67.2
2022-08-17T22:14:52.266Z,70.8
2022-08-17T22:34:52.201Z,82.2
2022-08-17T22:54:52.245Z,85.9
2022-08-17T23:14:52.184Z,86.5
2022-08-17T23:34:52.115Z,86.1
2022-08-17T23:54:52.151Z,86.8
